Main page
METAR-TAF:

METAR-TAF

Airports :

Tuzla International Airport

Tuzla, Bosnia and Herzegovina

latitude: 44-33N, longitude: 018-42E, elevation: 306 m

Current weather observation

The report was made 12 minutes ago, at 07:30 UTC
Wind 3 kt from the West/Northwest, varying between Southwest and North/Northwest
Temperature 13°C
Humidity 72%
Pressure 1029 hPa
Visibility 10 km or more
Few clouds at a height of 4000 ft
Broken clouds at a height of 5500 ft

METAR: LQTZ 190730Z 29003KT 220V340 9999 FEW040 BKN055 13/08 Q1029

Time: 09:42 (07:42 UTC)

Forecast

The report was made 2 hours and 42 minutes ago, at 05:00 UTC
Forecast valid from 19 at 06 UTC to 20 at 06 UTC
Wind 2 kt from variable directions
Visibility 10 km or more
no clouds below 1500 m and no cumulonimbus
Probability 30% :
Temporary
from 20 at 03 UTC to 20 at 06 UTC
Visibility: 3000 m
mist

TAF: LQTZ 190500Z 1906/2006 VRB02KT CAVOK TX19/1914Z TN04/2004Z PROB30 TEMPO 2003/2006 3000 BR

Weather observations and forecasts of more than 4000 airports (METAR and TAF reports).

The available stations are represented by yellow and red dots on the map.

Hover mouse over dot to see the name of the station.

Then click to see weather observations and forecasts.

To change the map : click on the green buttons with a black cross to zoom in, on the green button with a dash to zoom out, or on the green arrows for adjacent maps.


METAR-TAF: